Kine — C6WT4 — position and weather

sailwx.info

Track history (hours):
 
Tides and Currents Weather Stations Pressure Air Temp Water Temp Dewpoint Dewpoint Depression Visibility Wind Speed Wind Dir Waves Ship Positions

Kine

Last reported at 2017-May-26 00:47 UTC. Time now 2017-May-26 05:44 UTC.
Position N 47°38' W 005°16'.

Length 89 m; draft 4.8 m.

Type: Cargo ship. MMSI: 311117000.

Date/timePositionNaut miles runAvg speedWind from/ knotsBaromVisibWave heightAir tempDewpointWater temp
2017-May-26 00:47N 47°38' W 005°16'3 8.1
2017-May-26 00:27N 47°41' W 005°18'4 8.0
2017-May-25 23:55N 47°44' W 005°21'4 8.6
2017-May-25 23:28N 47°48' W 005°23'6 8.9
2017-May-25 22:48N 47°53' W 005°27'9 9.5
2017-May-25 21:53N 48°01' W 005°32'910.1
2017-May-25 20:58N 48°10' W 005°38'108 7.9
2017-May-25 07:10N 49°36' W 003°58'11 8.1
2017-May-25 05:48N 49°41' W 003°43'3 7.6
2017-May-25 05:27N 49°43' W 003°40'5 7.6
2017-May-25 04:45N 49°45' W 003°33'2 7.7
2017-May-25 04:30N 49°46' W 003°30'4 8.0
2017-May-25 04:00N 49°48' W 003°25'5 8.5
2017-May-25 03:24N 49°51' W 003°18'4 9.0
2017-May-25 03:00N 49°53' W 003°13'6 9.8
2017-May-25 02:24N 49°56' W 003°05'410.6
2017-May-25 02:00N 49°58' W 002°60'611.2
2017-May-25 01:27N 50°00' W 002°50'612.0
2017-May-25 00:55N 50°02' W 002°41'5010.0
2017-May-24 19:58N 50°16' W 001°27'4 6.0
2017-May-24 19:13N 50°17' W 001°20'2 5.9
2017-May-24 18:56N 50°18' W 001°17'7 5.8
2017-May-24 17:41N 50°20' W 001°06'31 9.4
2017-May-24 14:26N 50°29' W 000°20'1011.1
2017-May-24 13:30N 50°32' W 000°05'510.9
2017-May-24 13:00N 50°33' E 000°03'510.6
2017-May-24 12:30N 50°34' E 000°11'510.4
2017-May-24 12:00N 50°36' E 000°19'510.0
2017-May-24 11:30N 50°37' E 000°27'5 9.5
2017-May-24 11:00N 50°38' E 000°34'5 9.1
2017-May-24 10:30N 50°41' E 000°40'4 8.5
2017-May-24 10:00N 50°44' E 000°45'4 8.1
2017-May-24 09:30N 50°46' E 000°51'9 8.1
2017-May-24 08:25N 50°51' E 001°02'3 8.5
2017-May-24 08:00N 50°53' E 001°06'5 8.9
2017-May-24 07:30N 50°56' E 001°12'5 9.9
2017-May-24 06:59N 50°60' E 001°18'510.9
2017-May-24 06:30N 51°03' E 001°24'612.1
2017-May-24 06:00N 51°07' E 001°32'612.3
2017-May-24 05:30N 51°11' E 001°39'611.4
2017-May-24 05:00N 51°15' E 001°45'510.9
2017-May-24 04:30N 51°20' E 001°49'510.2
2017-May-24 04:00N 51°25' E 001°52'5 9.5
2017-May-24 03:30N 51°29' E 001°54'5 9.0
2017-May-24 03:00N 51°33' E 001°56'4 8.5
2017-May-24 02:30N 51°37' E 001°59'4 8.1
2017-May-24 02:00N 51°41' E 002°03'4 7.8
2017-May-24 01:30N 51°44' E 002°06'6 7.3
2017-May-24 00:44N 51°49' E 002°09'37 8.6
2017-May-23 20:28N 52°25' E 002°23'  
2017-May-21 11:56N 60°59' E 004°14'4 8.2
2017-May-21 11:30N 61°02' E 004°15'4 8.2
2017-May-21 11:00N 61°06' E 004°17'4 8.1
2017-May-21 10:30N 61°10' E 004°18'4 8.0
2017-May-21 10:00N 61°14' E 004°20'4 7.7
2017-May-21 09:30N 61°18' E 004°21'4 8.2
2017-May-21 08:59N 61°22' E 004°23'4 8.3
2017-May-21 08:30N 61°26' E 004°24'4 8.5
2017-May-21 08:00N 61°30' E 004°26'4 8.6
2017-May-21 07:30N 61°35' E 004°27'4 8.4
2017-May-21 07:00N 61°39' E 004°29'4 8.4
2017-May-21 06:30N 61°43' E 004°32'4 8.6
2017-May-21 06:00N 61°47' E 004°35'4 8.6
2017-May-21 05:30N 61°51' E 004°38'4 8.6
2017-May-21 05:00N 61°55' E 004°42'4 8.7
2017-May-21 04:30N 61°59' E 004°46'4 8.9
2017-May-21 04:00N 62°03' E 004°49'5 8.9
2017-May-21 03:30N 62°07' E 004°53'5 9.0
2017-May-21 03:00N 62°11' E 004°58'4 9.1
2017-May-21 02:30N 62°15' E 005°02'5 9.3
2017-May-21 02:00N 62°19' E 005°08'5 9.2
2017-May-21 01:30N 62°22' E 005°13'4 8.9
2017-May-21 01:00N 62°26' E 005°18'4 8.8
2017-May-21 00:30N 62°30' E 005°23'4 8.6
2017-May-21 00:00N 62°33' E 005°29'4 8.3
2017-May-20 23:30N 62°37' E 005°34'4 8.3
2017-May-20 23:00N 62°40' E 005°40'4 8.0
2017-May-20 22:30N 62°43' E 005°44'4 7.7
2017-May-20 22:00N 62°47' E 005°49'4 8.1
2017-May-20 21:30N 62°50' E 005°54'4 8.3
2017-May-20 21:00N 62°53' E 005°59'4 8.5
2017-May-20 20:30N 62°57' E 006°05'4 8.6
2017-May-20 20:00N 63°00' E 006°10'4 8.7
2017-May-20 19:30N 63°04' E 006°16'236 9.2
2017-May-19 17:48N 66°14' E 011°43'3 9.1
2017-May-19 17:30N 66°15' E 011°50'5 9.0
2017-May-19 17:00N 66°16' E 012°01'5 9.1
2017-May-19 16:30N 66°17' E 012°12'5 9.5
2017-May-19 16:00N 66°16' E 012°23'5 9.6
2017-May-19 15:30N 66°15' E 012°35'4 8.7
2017-May-19 15:00N 66°11' E 012°39'9 9.1
2017-May-19 14:00N 66°02' E 012°39'5 9.2
2017-May-19 13:30N 66°03' E 012°50'3 6.9
2017-May-19 13:00N 66°00' E 012°56'3 6.6
2017-May-19 12:29N 65°57' E 012°58'4 8.9
2017-May-19 12:00N 65°55' E 013°06'4 7.5
2017-May-19 11:30N 65°51' E 013°11'0 0.4
2017-May-19 11:00N 65°51' E 013°11'0 0.0
2017-May-19 10:30N 65°51' E 013°11'0 0.0
2017-May-19 09:57N 65°51' E 013°11'0 0.0
2017-May-19 09:27N 65°51' E 013°11'0 0.0
2017-May-19 09:00N 65°51' E 013°11'0 0.0
2017-May-19 08:30N 65°51' E 013°11'0 0.0
2017-May-19 08:00N 65°51' E 013°11'0 0.0
2017-May-19 07:30N 65°51' E 013°11'0 0.0
2017-May-19 06:57N 65°51' E 013°11'0 0.0
2017-May-19 06:30N 65°51' E 013°11'0 0.0
2017-May-19 06:00N 65°51' E 013°11'0 0.0
2017-May-19 05:30N 65°51' E 013°11'0 0.0
2017-May-19 05:00N 65°51' E 013°11'0 0.0
2017-May-19 04:27N 65°51' E 013°11'0 0.0
2017-May-19 04:00N 65°51' E 013°11'0 0.0
2017-May-19 03:30N 65°51' E 013°11'0 0.0
2017-May-19 03:00N 65°51' E 013°11'0 0.0
2017-May-19 02:30N 65°51' E 013°11'0 0.0
2017-May-19 02:00N 65°51' E 013°11'0 0.0
2017-May-19 01:27N 65°51' E 013°11'0 0.0
2017-May-19 01:00N 65°51' E 013°11'0 0.0
2017-May-19 00:30N 65°51' E 013°11'0 0.0
2017-May-19 00:00N 65°51' E 013°11'0 0.0
2017-May-18 23:30N 65°51' E 013°11'0 0.0
2017-May-18 23:00N 65°51' E 013°11'0 0.0
2017-May-18 22:30N 65°51' E 013°11'0 0.0
2017-May-18 21:57N 65°51' E 013°11'0 0.0
2017-May-18 21:30N 65°51' E 013°11'0 0.0
2017-May-18 20:57N 65°51' E 013°11'0 0.0
2017-May-18 20:30N 65°51' E 013°11'0 0.0
2017-May-18 20:00N 65°51' E 013°11'0 0.0
2017-May-18 19:30N 65°51' E 013°11'0 0.0
2017-May-18 18:57N 65°51' E 013°11'0 0.0
2017-May-18 18:27N 65°51' E 013°11'0 0.0
2017-May-18 17:57N 65°51' E 013°11'0 0.0
2017-May-18 17:21N 65°51' E 013°11'0 0.0
2017-May-18 16:51N 65°51' E 013°11'0 0.0
2017-May-18 16:27N 65°51' E 013°11'0 0.0
2017-May-18 15:51N 65°51' E 013°11'0 0.0
2017-May-18 15:27N 65°51' E 013°11'0 0.0
2017-May-18 14:57N 65°51' E 013°11'0 0.0
2017-May-18 13:57N 65°51' E 013°11'0 0.0
2017-May-18 09:45N 65°51' E 013°11'0 0.0
2017-May-18 09:21N 65°51' E 013°11'0 0.0
2017-May-17 18:09N 65°51' E 013°11'0 0.0
2017-May-17 17:48N 65°51' E 013°11'0 0.0
2017-May-17 17:30N 65°51' E 013°11'0 0.0
2017-May-17 16:42N 65°51' E 013°11'0 0.0
2017-May-17 16:24N 65°51' E 013°11'0 0.0
2017-May-17 15:36N 65°51' E 013°11'0 0.0
2017-May-17 14:27N 65°51' E 013°11'6 5.7
2017-May-17 13:29N 65°55' E 013°03'510.2
2017-May-17 13:00N 65°58' E 012°53'4 8.5
2017-May-17 12:30N 66°02' E 012°56'510.4
2017-May-17 12:00N 66°02' E 012°43'3 5.1
2017-May-17 11:29N 66°05' E 012°40'4 9.1
2017-May-17 11:00N 66°08' E 012°48'5 9.3
2017-May-17 10:30N 66°10' E 012°58'4 7.4
2017-May-17 10:00N 66°13' E 013°03'0 0.1
2017-May-17 09:29N 66°13' E 013°03'0 0.0
2017-May-17 08:56N 66°13' E 013°03'0 0.3
2017-May-17 08:08N 66°13' E 013°02'0 0.0
2017-May-17 07:47N 66°13' E 013°02'0 0.1
2017-May-17 07:29N 66°13' E 013°02'0 0.0
2017-May-17 06:59N 66°13' E 013°02'0 0.1
2017-May-17 06:29N 66°13' E 013°02'0 0.1
2017-May-17 05:59N 66°13' E 013°02'0 0.0
2017-May-17 05:29N 66°13' E 013°02'0 0.0
2017-May-17 04:59N 66°13' E 013°02'0 0.1
2017-May-17 04:29N 66°13' E 013°02'0 0.1
2017-May-17 03:59N 66°13' E 013°02'0 0.1
2017-May-17 03:29N 66°13' E 013°02'0 0.0
2017-May-17 02:59N 66°13' E 013°02'0 0.0
2017-May-17 02:29N 66°13' E 013°02'0 0.0
2017-May-17 01:59N 66°13' E 013°02'0 0.0
2017-May-17 01:29N 66°13' E 013°02'0 0.0
2017-May-17 00:59N 66°13' E 013°02'0 0.0
2017-May-17 00:29N 66°13' E 013°02'0 0.0
2017-May-16 23:59N 66°13' E 013°02'0 0.0
2017-May-16 23:29N 66°13' E 013°02'0 0.0
2017-May-16 22:59N 66°13' E 013°02'0 0.0
2017-May-16 22:29N 66°13' E 013°02'0 0.1
2017-May-16 21:59N 66°13' E 013°02'0 0.1
2017-May-16 21:29N 66°13' E 013°02'0 0.1
2017-May-16 20:59N 66°13' E 013°02'0 0.0
2017-May-16 20:29N 66°13' E 013°02'0 0.0
2017-May-16 19:59N 66°13' E 013°02'0 0.0
2017-May-16 19:29N 66°13' E 013°02'0 0.0
2017-May-16 18:59N 66°13' E 013°02'0 0.0
2017-May-16 18:23N 66°13' E 013°03'0 0.0
2017-May-16 17:59N 66°13' E 013°03'0 0.0
2017-May-16 17:29N 66°13' E 013°03'0 0.0
2017-May-16 16:59N 66°13' E 013°03'0 0.0
2017-May-16 16:29N 66°13' E 013°03'0 0.1
2017-May-16 15:59N 66°13' E 013°02'0 0.0
2017-May-16 15:29N 66°13' E 013°02'0 0.1
2017-May-16 14:59N 66°13' E 013°02'0 0.1
2017-May-16 14:29N 66°13' E 013°02'0 0.0
2017-May-16 13:29N 66°13' E 013°02'0 0.0
2017-May-16 12:59N 66°13' E 013°02'0 0.0
2017-May-16 12:29N 66°13' E 013°02'0 0.0
2017-May-16 11:53N 66°13' E 013°02'0 0.0
2017-May-16 11:29N 66°13' E 013°02'0 0.0
2017-May-16 10:59N 66°13' E 013°02'0 0.0
2017-May-16 10:26N 66°13' E 013°02'0 0.0
2017-May-16 09:59N 66°13' E 013°02'0 0.0
2017-May-16 09:29N 66°13' E 013°02'0 0.0
2017-May-16 08:59N 66°13' E 013°02'0 0.1
2017-May-16 08:29N 66°13' E 013°02'0 0.1
2017-May-16 07:59N 66°13' E 013°02'0 0.0
2017-May-16 07:26N 66°13' E 013°02'0 0.0
2017-May-16 06:59N 66°13' E 013°02'0 0.0
2017-May-16 06:29N 66°13' E 013°02'0 0.0
2017-May-16 05:59N 66°13' E 013°02'0 0.0
2017-May-16 05:29N 66°13' E 013°02'0 0.0
2017-May-16 04:59N 66°13' E 013°02'0 0.0
2017-May-16 04:29N 66°13' E 013°02'0 0.1
2017-May-16 03:59N 66°13' E 013°02'0 0.1
2017-May-16 03:29N 66°13' E 013°02'0 0.0
2017-May-16 02:59N 66°13' E 013°02'0 0.0
2017-May-16 02:29N 66°13' E 013°02'0 0.1
2017-May-16 01:59N 66°13' E 013°02'0 0.0
2017-May-16 01:29N 66°13' E 013°02'0 0.0
2017-May-16 00:59N 66°13' E 013°02'  
Track history (hours):
 
Tides and Currents Weather Stations Pressure Air Temp Water Temp Dewpoint Dewpoint Depression Visibility Wind Speed Wind Dir Waves Ship Positions

Kine

Last reported at 2017-May-26 00:47 UTC. Time now 2017-May-26 05:44 UTC.
Position N 47°38' W 005°16'.

Length 89 m; draft 4.8 m.

Type: Cargo ship. MMSI: 311117000.

Date/timePositionNaut miles runAvg speedWind from/ knotsBaromVisibWave heightAir tempDewpointWater temp
2017-May-26 00:47N 47°38' W 005°16'3 8.1
2017-May-26 00:27N 47°41' W 005°18'4 8.0
2017-May-25 23:55N 47°44' W 005°21'4 8.6
2017-May-25 23:28N 47°48' W 005°23'6 8.9
2017-May-25 22:48N 47°53' W 005°27'9 9.5
2017-May-25 21:53N 48°01' W 005°32'910.1
2017-May-25 20:58N 48°10' W 005°38'108 7.9
2017-May-25 07:10N 49°36' W 003°58'11 8.1
2017-May-25 05:48N 49°41' W 003°43'3 7.6
2017-May-25 05:27N 49°43' W 003°40'5 7.6
2017-May-25 04:45N 49°45' W 003°33'2 7.7
2017-May-25 04:30N 49°46' W 003°30'4 8.0
2017-May-25 04:00N 49°48' W 003°25'5 8.5
2017-May-25 03:24N 49°51' W 003°18'4 9.0
2017-May-25 03:00N 49°53' W 003°13'6 9.8
2017-May-25 02:24N 49°56' W 003°05'410.6
2017-May-25 02:00N 49°58' W 002°60'611.2
2017-May-25 01:27N 50°00' W 002°50'612.0
2017-May-25 00:55N 50°02' W 002°41'5010.0
2017-May-24 19:58N 50°16' W 001°27'4 6.0
2017-May-24 19:13N 50°17' W 001°20'2 5.9
2017-May-24 18:56N 50°18' W 001°17'7 5.8
2017-May-24 17:41N 50°20' W 001°06'31 9.4
2017-May-24 14:26N 50°29' W 000°20'1011.1
2017-May-24 13:30N 50°32' W 000°05'510.9
2017-May-24 13:00N 50°33' E 000°03'510.6
2017-May-24 12:30N 50°34' E 000°11'510.4
2017-May-24 12:00N 50°36' E 000°19'510.0
2017-May-24 11:30N 50°37' E 000°27'5 9.5
2017-May-24 11:00N 50°38' E 000°34'5 9.1
2017-May-24 10:30N 50°41' E 000°40'4 8.5
2017-May-24 10:00N 50°44' E 000°45'4 8.1
2017-May-24 09:30N 50°46' E 000°51'9 8.1
2017-May-24 08:25N 50°51' E 001°02'3 8.5
2017-May-24 08:00N 50°53' E 001°06'5 8.9
2017-May-24 07:30N 50°56' E 001°12'5 9.9
2017-May-24 06:59N 50°60' E 001°18'510.9
2017-May-24 06:30N 51°03' E 001°24'612.1
2017-May-24 06:00N 51°07' E 001°32'612.3
2017-May-24 05:30N 51°11' E 001°39'611.4
2017-May-24 05:00N 51°15' E 001°45'510.9
2017-May-24 04:30N 51°20' E 001°49'510.2
2017-May-24 04:00N 51°25' E 001°52'5 9.5
2017-May-24 03:30N 51°29' E 001°54'5 9.0
2017-May-24 03:00N 51°33' E 001°56'4 8.5
2017-May-24 02:30N 51°37' E 001°59'4 8.1
2017-May-24 02:00N 51°41' E 002°03'4 7.8
2017-May-24 01:30N 51°44' E 002°06'6 7.3
2017-May-24 00:44N 51°49' E 002°09'37 8.6
2017-May-23 20:28N 52°25' E 002°23'  
2017-May-21 11:56N 60°59' E 004°14'4 8.2
2017-May-21 11:30N 61°02' E 004°15'4 8.2
2017-May-21 11:00N 61°06' E 004°17'4 8.1
2017-May-21 10:30N 61°10' E 004°18'4 8.0
2017-May-21 10:00N 61°14' E 004°20'4 7.7
2017-May-21 09:30N 61°18' E 004°21'4 8.2
2017-May-21 08:59N 61°22' E 004°23'4 8.3
2017-May-21 08:30N 61°26' E 004°24'4 8.5
2017-May-21 08:00N 61°30' E 004°26'4 8.6
2017-May-21 07:30N 61°35' E 004°27'4 8.4
2017-May-21 07:00N 61°39' E 004°29'4 8.4
2017-May-21 06:30N 61°43' E 004°32'4 8.6
2017-May-21 06:00N 61°47' E 004°35'4 8.6
2017-May-21 05:30N 61°51' E 004°38'4 8.6
2017-May-21 05:00N 61°55' E 004°42'4 8.7
2017-May-21 04:30N 61°59' E 004°46'4 8.9
2017-May-21 04:00N 62°03' E 004°49'5 8.9
2017-May-21 03:30N 62°07' E 004°53'5 9.0
2017-May-21 03:00N 62°11' E 004°58'4 9.1
2017-May-21 02:30N 62°15' E 005°02'5 9.3
2017-May-21 02:00N 62°19' E 005°08'5 9.2
2017-May-21 01:30N 62°22' E 005°13'4 8.9
2017-May-21 01:00N 62°26' E 005°18'4 8.8
2017-May-21 00:30N 62°30' E 005°23'4 8.6
2017-May-21 00:00N 62°33' E 005°29'4 8.3
2017-May-20 23:30N 62°37' E 005°34'4 8.3
2017-May-20 23:00N 62°40' E 005°40'4 8.0
2017-May-20 22:30N 62°43' E 005°44'4 7.7
2017-May-20 22:00N 62°47' E 005°49'4 8.1
2017-May-20 21:30N 62°50' E 005°54'4 8.3
2017-May-20 21:00N 62°53' E 005°59'4 8.5
2017-May-20 20:30N 62°57' E 006°05'4 8.6
2017-May-20 20:00N 63°00' E 006°10'4 8.7
2017-May-20 19:30N 63°04' E 006°16'236 9.2
2017-May-19 17:48N 66°14' E 011°43'3 9.1
2017-May-19 17:30N 66°15' E 011°50'5 9.0
2017-May-19 17:00N 66°16' E 012°01'5 9.1
2017-May-19 16:30N 66°17' E 012°12'5 9.5
2017-May-19 16:00N 66°16' E 012°23'5 9.6
2017-May-19 15:30N 66°15' E 012°35'4 8.7
2017-May-19 15:00N 66°11' E 012°39'9 9.1
2017-May-19 14:00N 66°02' E 012°39'5 9.2
2017-May-19 13:30N 66°03' E 012°50'3 6.9
2017-May-19 13:00N 66°00' E 012°56'3 6.6
2017-May-19 12:29N 65°57' E 012°58'4 8.9
2017-May-19 12:00N 65°55' E 013°06'4 7.5
2017-May-19 11:30N 65°51' E 013°11'0 0.4
2017-May-19 11:00N 65°51' E 013°11'0 0.0
2017-May-19 10:30N 65°51' E 013°11'0 0.0
2017-May-19 09:57N 65°51' E 013°11'0 0.0
2017-May-19 09:27N 65°51' E 013°11'0 0.0
2017-May-19 09:00N 65°51' E 013°11'0 0.0
2017-May-19 08:30N 65°51' E 013°11'0 0.0
2017-May-19 08:00N 65°51' E 013°11'0 0.0
2017-May-19 07:30N 65°51' E 013°11'0 0.0
2017-May-19 06:57N 65°51' E 013°11'0 0.0
2017-May-19 06:30N 65°51' E 013°11'0 0.0
2017-May-19 06:00N 65°51' E 013°11'0 0.0
2017-May-19 05:30N 65°51' E 013°11'0 0.0
2017-May-19 05:00N 65°51' E 013°11'0 0.0
2017-May-19 04:27N 65°51' E 013°11'0 0.0
2017-May-19 04:00N 65°51' E 013°11'0 0.0
2017-May-19 03:30N 65°51' E 013°11'0 0.0
2017-May-19 03:00N 65°51' E 013°11'0 0.0
2017-May-19 02:30N 65°51' E 013°11'0 0.0
2017-May-19 02:00N 65°51' E 013°11'0 0.0
2017-May-19 01:27N 65°51' E 013°11'0 0.0
2017-May-19 01:00N 65°51' E 013°11'0 0.0
2017-May-19 00:30N 65°51' E 013°11'0 0.0
2017-May-19 00:00N 65°51' E 013°11'0 0.0
2017-May-18 23:30N 65°51' E 013°11'0 0.0
2017-May-18 23:00N 65°51' E 013°11'0 0.0
2017-May-18 22:30N 65°51' E 013°11'0 0.0
2017-May-18 21:57N 65°51' E 013°11'0 0.0
2017-May-18 21:30N 65°51' E 013°11'0 0.0
2017-May-18 20:57N 65°51' E 013°11'0 0.0
2017-May-18 20:30N 65°51' E 013°11'0 0.0
2017-May-18 20:00N 65°51' E 013°11'0 0.0
2017-May-18 19:30N 65°51' E 013°11'0 0.0
2017-May-18 18:57N 65°51' E 013°11'0 0.0
2017-May-18 18:27N 65°51' E 013°11'0 0.0
2017-May-18 17:57N 65°51' E 013°11'0 0.0
2017-May-18 17:21N 65°51' E 013°11'0 0.0
2017-May-18 16:51N 65°51' E 013°11'0 0.0
2017-May-18 16:27N 65°51' E 013°11'0 0.0
2017-May-18 15:51N 65°51' E 013°11'0 0.0
2017-May-18 15:27N 65°51' E 013°11'0 0.0
2017-May-18 14:57N 65°51' E 013°11'0 0.0
2017-May-18 13:57N 65°51' E 013°11'0 0.0
2017-May-18 09:45N 65°51' E 013°11'0 0.0
2017-May-18 09:21N 65°51' E 013°11'0 0.0
2017-May-17 18:09N 65°51' E 013°11'0 0.0
2017-May-17 17:48N 65°51' E 013°11'0 0.0
2017-May-17 17:30N 65°51' E 013°11'0 0.0
2017-May-17 16:42N 65°51' E 013°11'0 0.0
2017-May-17 16:24N 65°51' E 013°11'0 0.0
2017-May-17 15:36N 65°51' E 013°11'0 0.0
2017-May-17 14:27N 65°51' E 013°11'6 5.7
2017-May-17 13:29N 65°55' E 013°03'510.2
2017-May-17 13:00N 65°58' E 012°53'4 8.5
2017-May-17 12:30N 66°02' E 012°56'510.4
2017-May-17 12:00N 66°02' E 012°43'3 5.1
2017-May-17 11:29N 66°05' E 012°40'4 9.1
2017-May-17 11:00N 66°08' E 012°48'5 9.3
2017-May-17 10:30N 66°10' E 012°58'4 7.4
2017-May-17 10:00N 66°13' E 013°03'0 0.1
2017-May-17 09:29N 66°13' E 013°03'0 0.0
2017-May-17 08:56N 66°13' E 013°03'0 0.3
2017-May-17 08:08N 66°13' E 013°02'0 0.0
2017-May-17 07:47N 66°13' E 013°02'0 0.1
2017-May-17 07:29N 66°13' E 013°02'0 0.0
2017-May-17 06:59N 66°13' E 013°02'0 0.1
2017-May-17 06:29N 66°13' E 013°02'0 0.1
2017-May-17 05:59N 66°13' E 013°02'0 0.0
2017-May-17 05:29N 66°13' E 013°02'0 0.0
2017-May-17 04:59N 66°13' E 013°02'0 0.1
2017-May-17 04:29N 66°13' E 013°02'0 0.1
2017-May-17 03:59N 66°13' E 013°02'0 0.1
2017-May-17 03:29N 66°13' E 013°02'0 0.0
2017-May-17 02:59N 66°13' E 013°02'0 0.0
2017-May-17 02:29N 66°13' E 013°02'0 0.0
2017-May-17 01:59N 66°13' E 013°02'0 0.0
2017-May-17 01:29N 66°13' E 013°02'0 0.0
2017-May-17 00:59N 66°13' E 013°02'0 0.0
2017-May-17 00:29N 66°13' E 013°02'0 0.0
2017-May-16 23:59N 66°13' E 013°02'0 0.0
2017-May-16 23:29N 66°13' E 013°02'0 0.0
2017-May-16 22:59N 66°13' E 013°02'0 0.0
2017-May-16 22:29N 66°13' E 013°02'0 0.1
2017-May-16 21:59N 66°13' E 013°02'0 0.1
2017-May-16 21:29N 66°13' E 013°02'0 0.1
2017-May-16 20:59N 66°13' E 013°02'0 0.0
2017-May-16 20:29N 66°13' E 013°02'0 0.0
2017-May-16 19:59N 66°13' E 013°02'0 0.0
2017-May-16 19:29N 66°13' E 013°02'0 0.0
2017-May-16 18:59N 66°13' E 013°02'0 0.0
2017-May-16 18:23N 66°13' E 013°03'0 0.0
2017-May-16 17:59N 66°13' E 013°03'0 0.0
2017-May-16 17:29N 66°13' E 013°03'0 0.0
2017-May-16 16:59N 66°13' E 013°03'0 0.0
2017-May-16 16:29N 66°13' E 013°03'0 0.1
2017-May-16 15:59N 66°13' E 013°02'0 0.0
2017-May-16 15:29N 66°13' E 013°02'0 0.1
2017-May-16 14:59N 66°13' E 013°02'0 0.1
2017-May-16 14:29N 66°13' E 013°02'0 0.0
2017-May-16 13:29N 66°13' E 013°02'0 0.0
2017-May-16 12:59N 66°13' E 013°02'0 0.0
2017-May-16 12:29N 66°13' E 013°02'0 0.0
2017-May-16 11:53N 66°13' E 013°02'0 0.0
2017-May-16 11:29N 66°13' E 013°02'0 0.0
2017-May-16 10:59N 66°13' E 013°02'0 0.0
2017-May-16 10:26N 66°13' E 013°02'0 0.0
2017-May-16 09:59N 66°13' E 013°02'0 0.0
2017-May-16 09:29N 66°13' E 013°02'0 0.0
2017-May-16 08:59N 66°13' E 013°02'0 0.1
2017-May-16 08:29N 66°13' E 013°02'0 0.1
2017-May-16 07:59N 66°13' E 013°02'0 0.0
2017-May-16 07:26N 66°13' E 013°02'0 0.0
2017-May-16 06:59N 66°13' E 013°02'0 0.0
2017-May-16 06:29N 66°13' E 013°02'0 0.0
2017-May-16 05:59N 66°13' E 013°02'0 0.0
2017-May-16 05:29N 66°13' E 013°02'0 0.0
2017-May-16 04:59N 66°13' E 013°02'0 0.0
2017-May-16 04:29N 66°13' E 013°02'0 0.1
2017-May-16 03:59N 66°13' E 013°02'0 0.1
2017-May-16 03:29N 66°13' E 013°02'0 0.0
2017-May-16 02:59N 66°13' E 013°02'0 0.0
2017-May-16 02:29N 66°13' E 013°02'0 0.1
2017-May-16 01:59N 66°13' E 013°02'0 0.0
2017-May-16 01:29N 66°13' E 013°02'0 0.0
2017-May-16 00:59N 66°13' E 013°02'  

Dump ship's entire track history